createdAt,value
2023-01-01T00:00:26.926Z,95.50
2023-01-01T00:01:07.770Z,95.50
2023-01-01T00:01:42.841Z,95.50
2023-01-01T00:02:17.793Z,95.40
2023-01-01T00:02:52.306Z,95.30
2023-01-01T00:03:26.199Z,95.30
2023-01-01T00:04:01.547Z,95.30
2023-01-01T00:04:35.702Z,95.20
2023-01-01T00:05:10.414Z,95.40
2023-01-01T00:05:46.397Z,95.20
2023-01-01T00:06:20.530Z,95.20
2023-01-01T00:06:55.474Z,95.20
2023-01-01T00:07:30.632Z,95.20
2023-01-01T00:08:06.373Z,95.20
2023-01-01T00:08:42.032Z,95.20
2023-01-01T00:09:35.789Z,95.20
2023-01-01T00:10:29.330Z,95.10
2023-01-01T00:11:04.293Z,95.10
2023-01-01T00:11:38.377Z,95.20
2023-01-01T00:12:13.022Z,95.20
2023-01-01T00:12:46.867Z,95.10
2023-01-01T00:13:22.893Z,95.10
2023-01-01T00:13:56.764Z,95.10
2023-01-01T00:14:31.283Z,95.10
2023-01-01T00:15:06.020Z,95.10
2023-01-01T00:15:40.486Z,95.10
2023-01-01T00:16:16.109Z,95.20
2023-01-01T00:16:49.702Z,95.20
2023-01-01T00:17:24.187Z,95.30
2023-01-01T00:17:59.576Z,95.30
2023-01-01T00:18:32.418Z,95.30
2023-01-01T00:19:08.692Z,95.30
2023-01-01T00:19:42.863Z,95.40
2023-01-01T00:20:18.077Z,95.40
2023-01-01T00:20:52.265Z,95.40
2023-01-01T00:21:27.208Z,95.40
2023-01-01T00:22:05.670Z,95.30
2023-01-01T00:22:57.001Z,95.20
2023-01-01T00:23:30.640Z,95.20
2023-01-01T00:24:07.737Z,95.10
2023-01-01T00:24:43.956Z,95.00
2023-01-01T00:25:20.813Z,94.90
2023-01-01T00:25:56.474Z,94.90
2023-01-01T00:26:34.855Z,95.10
2023-01-01T00:27:10.839Z,94.90
2023-01-01T00:27:44.516Z,94.90
2023-01-01T00:28:20.780Z,94.90
2023-01-01T00:28:54.878Z,94.90
2023-01-01T00:29:29.328Z,95.00
2023-01-01T00:30:04.784Z,95.00
2023-01-01T00:30:41.129Z,95.00
2023-01-01T00:31:18.046Z,95.00
2023-01-01T00:31:52.397Z,95.00
2023-01-01T00:32:28.050Z,95.00
2023-01-01T00:33:01.395Z,95.00
2023-01-01T00:33:36.644Z,94.90
2023-01-01T00:34:11.242Z,94.80
2023-01-01T00:34:46.620Z,94.80
2023-01-01T00:35:21.001Z,94.70
2023-01-01T00:35:55.509Z,94.80
2023-01-01T00:36:31.759Z,94.80
2023-01-01T00:37:05.155Z,94.80
2023-01-01T00:37:46.406Z,94.80
2023-01-01T00:38:20.462Z,94.80
2023-01-01T00:38:55.648Z,94.80
2023-01-01T00:39:30.594Z,94.80
2023-01-01T00:40:09.231Z,94.80
2023-01-01T00:40:44.327Z,94.90
2023-01-01T00:41:20.597Z,95.00
2023-01-01T00:41:54.801Z,95.00
2023-01-01T00:42:28.745Z,95.10
2023-01-01T00:43:04.055Z,95.00
2023-01-01T00:43:38.166Z,95.00
2023-01-01T00:44:13.255Z,95.00
2023-01-01T00:44:47.030Z,95.00
2023-01-01T00:45:23.360Z,95.00
2023-01-01T00:45:56.111Z,95.10
2023-01-01T00:46:30.501Z,95.10
2023-01-01T00:47:06.486Z,95.20
2023-01-01T00:47:40.315Z,95.20
2023-01-01T00:48:15.168Z,95.20
2023-01-01T00:48:49.635Z,95.20
2023-01-01T00:49:23.747Z,95.20
2023-01-01T00:49:58.584Z,95.20
2023-01-01T00:50:32.461Z,95.10
2023-01-01T00:51:07.144Z,95.10
2023-01-01T00:51:41.017Z,95.10
2023-01-01T00:52:15.088Z,95.20
2023-01-01T00:52:51.148Z,95.20
2023-01-01T00:53:24.614Z,95.20
2023-01-01T00:54:01.055Z,95.20
2023-01-01T00:54:34.514Z,95.30
2023-01-01T00:55:11.568Z,95.40
2023-01-01T00:55:46.786Z,95.40
2023-01-01T00:56:20.222Z,95.40
2023-01-01T00:56:56.452Z,95.40
2023-01-01T00:57:30.325Z,95.40
2023-01-01T00:58:05.471Z,95.50
2023-01-01T00:58:39.544Z,95.60
2023-01-01T00:59:14.445Z,95.60
2023-01-01T00:59:47.825Z,95.60
2023-01-01T01:00:22.260Z,95.60
2023-01-01T01:00:57.409Z,95.60
2023-01-01T01:01:32.199Z,95.60
2023-01-01T01:02:06.734Z,95.60
2023-01-01T01:02:40.898Z,95.50
2023-01-01T01:03:28.251Z,95.50
2023-01-01T01:04:05.104Z,95.40
2023-01-01T01:04:39.974Z,95.40
2023-01-01T01:05:13.638Z,95.40
2023-01-01T01:05:48.919Z,95.40
2023-01-01T01:06:23.061Z,95.40
2023-01-01T01:06:58.027Z,95.40
2023-01-01T01:07:38.779Z,95.40
2023-01-01T01:08:13.680Z,95.30
2023-01-01T01:08:49.276Z,95.30
2023-01-01T01:09:22.658Z,95.30
2023-01-01T01:09:58.370Z,95.40
2023-01-01T01:10:33.153Z,95.50
2023-01-01T01:11:08.110Z,95.60
2023-01-01T01:11:41.969Z,95.60
2023-01-01T01:12:17.964Z,95.80
2023-01-01T01:12:52.975Z,95.80
2023-01-01T01:13:26.763Z,95.90
2023-01-01T01:14:01.933Z,95.90
2023-01-01T01:14:35.826Z,95.90
2023-01-01T01:15:11.329Z,95.80
2023-01-01T01:15:46.999Z,95.70
2023-01-01T01:16:25.459Z,95.70
2023-01-01T01:16:59.731Z,95.70
2023-01-01T01:17:34.184Z,95.60
2023-01-01T01:18:07.657Z,95.60
2023-01-01T01:18:43.118Z,95.50
2023-01-01T01:19:19.075Z,95.50
2023-01-01T01:19:55.439Z,95.50
2023-01-01T01:20:29.860Z,95.40
2023-01-01T01:21:03.230Z,95.40
2023-01-01T01:21:37.651Z,95.50
2023-01-01T01:22:12.324Z,95.50
2023-01-01T01:22:47.307Z,95.60
2023-01-01T01:23:20.473Z,95.60
2023-01-01T01:23:54.317Z,95.60
2023-01-01T01:24:29.239Z,95.60
2023-01-01T01:25:04.234Z,95.70
2023-01-01T01:25:40.362Z,95.80
2023-01-01T01:26:17.279Z,95.80
2023-01-01T01:26:54.467Z,95.80
2023-01-01T01:27:27.840Z,95.80
2023-01-01T01:28:01.763Z,95.70
2023-01-01T01:28:37.379Z,95.60
2023-01-01T01:29:12.057Z,95.60
2023-01-01T01:29:46.109Z,95.60
2023-01-01T01:30:20.603Z,95.60
2023-01-01T01:30:54.749Z,95.60
2023-01-01T01:31:31.844Z,95.60
2023-01-01T01:32:07.227Z,95.60
2023-01-01T01:32:41.696Z,95.50
2023-01-01T01:33:16.959Z,95.50
2023-01-01T01:33:52.571Z,95.50
2023-01-01T01:34:28.371Z,95.50
2023-01-01T01:35:03.160Z,95.50
2023-01-01T01:35:37.882Z,95.50
2023-01-01T01:36:13.303Z,95.50
2023-01-01T01:36:49.342Z,95.40
2023-01-01T01:37:23.550Z,95.40
2023-01-01T01:37:58.888Z,95.40
2023-01-01T01:38:34.130Z,95.40
2023-01-01T01:39:07.465Z,95.50
2023-01-01T01:39:41.829Z,95.50
2023-01-01T01:40:19.097Z,95.60
2023-01-01T01:40:53.905Z,95.60
2023-01-01T01:41:29.315Z,95.60
2023-01-01T01:42:04.664Z,95.50
2023-01-01T01:42:38.563Z,95.40
2023-01-01T01:43:21.082Z,95.40
2023-01-01T01:43:59.817Z,95.30
2023-01-01T01:44:52.178Z,95.30
2023-01-01T01:45:33.209Z,95.30
2023-01-01T01:46:13.105Z,95.40
2023-01-01T01:46:48.838Z,95.40
2023-01-01T01:47:27.910Z,95.50
2023-01-01T01:48:03.018Z,95.50
2023-01-01T01:48:47.410Z,95.40
2023-01-01T01:49:27.742Z,95.40
2023-01-01T01:50:10.468Z,95.40
2023-01-01T01:50:48.369Z,95.40
2023-01-01T01:51:28.207Z,95.40
2023-01-01T01:52:03.351Z,95.40
2023-01-01T01:52:41.767Z,95.40
2023-01-01T01:53:19.906Z,95.40
2023-01-01T01:54:03.014Z,95.30
2023-01-01T01:54:36.346Z,95.40
2023-01-01T01:55:12.764Z,95.30
2023-01-01T01:55:50.752Z,95.30
2023-01-01T01:56:32.871Z,95.20
2023-01-01T01:57:10.175Z,95.20
2023-01-01T01:57:46.412Z,95.20
2023-01-01T01:58:21.705Z,95.10
2023-01-01T01:58:56.319Z,95.10
2023-01-01T01:59:33.805Z,95.10
2023-01-01T02:00:11.596Z,95.10
2023-01-01T02:00:46.048Z,95.00
2023-01-01T02:01:22.318Z,95.00
2023-01-01T02:01:55.611Z,95.10
2023-01-01T02:02:35.201Z,95.10
2023-01-01T02:03:12.667Z,95.10
2023-01-01T02:03:52.257Z,95.10
2023-01-01T02:04:26.521Z,95.10
2023-01-01T02:05:01.013Z,95.10
2023-01-01T02:05:36.823Z,95.10
2023-01-01T02:06:10.991Z,95.10
2023-01-01T02:06:46.685Z,95.20
2023-01-01T02:07:22.790Z,95.20
2023-01-01T02:07:59.398Z,95.30
2023-01-01T02:08:33.937Z,95.40
2023-01-01T02:09:10.054Z,95.50
2023-01-01T02:09:44.762Z,95.50
2023-01-01T02:10:18.747Z,95.50
2023-01-01T02:10:53.944Z,95.50
2023-01-01T02:11:29.352Z,95.60
2023-01-01T02:12:03.267Z,95.60
2023-01-01T02:12:38.195Z,95.60
2023-01-01T02:13:12.095Z,95.60
2023-01-01T02:13:45.512Z,95.70
2023-01-01T02:14:21.106Z,95.70
2023-01-01T02:14:55.395Z,95.80
2023-01-01T02:15:36.677Z,95.80
2023-01-01T02:16:15.824Z,95.80
2023-01-01T02:16:55.957Z,95.80
2023-01-01T02:17:38.983Z,95.80
2023-01-01T02:18:19.305Z,95.80
2023-01-01T02:18:59.042Z,95.70
2023-01-01T02:19:45.933Z,95.60
2023-01-01T02:20:33.883Z,95.60
2023-01-01T02:21:12.948Z,95.50
2023-01-01T02:21:57.953Z,95.50
2023-01-01T02:22:48.330Z,95.30
2023-01-01T02:23:48.613Z,95.40
2023-01-01T02:24:49.993Z,95.40
2023-01-01T02:25:29.704Z,95.30
2023-01-01T02:26:26.469Z,95.30
2023-01-01T02:27:04.225Z,95.30
2023-01-01T02:27:53.915Z,95.30
2023-01-01T02:28:50.882Z,95.30
2023-01-01T02:30:02.086Z,95.30
2023-01-01T02:30:40.579Z,95.40
2023-01-01T02:31:23.406Z,95.40
2023-01-01T02:32:02.739Z,95.40
2023-01-01T02:32:39.471Z,95.40
2023-01-01T02:33:16.617Z,95.40
2023-01-01T02:33:52.730Z,95.40
2023-01-01T02:34:30.076Z,95.40
2023-01-01T02:35:24.215Z,95.30
2023-01-01T02:36:02.111Z,95.30
2023-01-01T02:36:40.526Z,95.30
2023-01-01T02:37:19.739Z,95.30
2023-01-01T02:37:57.700Z,95.30
2023-01-01T02:38:35.380Z,95.30
2023-01-01T02:39:12.061Z,95.30
2023-01-01T02:39:50.759Z,95.30
2023-01-01T02:40:26.743Z,95.30
2023-01-01T02:41:03.969Z,95.30
2023-01-01T02:41:42.969Z,95.30
2023-01-01T02:42:19.100Z,95.20
2023-01-01T02:42:56.958Z,95.10
2023-01-01T02:43:30.299Z,95.10
2023-01-01T02:44:45.458Z,95.00
2023-01-01T02:45:18.583Z,95.00
2023-01-01T02:45:53.250Z,95.10
2023-01-01T02:46:33.356Z,95.10
2023-01-01T02:47:14.049Z,95.10
2023-01-01T02:47:47.698Z,95.10
2023-01-01T02:48:40.461Z,95.10
2023-01-01T02:49:15.007Z,95.20
2023-01-01T02:49:57.415Z,95.20
2023-01-01T02:50:32.043Z,95.10
2023-01-01T02:51:12.536Z,95.20
2023-01-01T02:51:59.743Z,95.20
2023-01-01T02:53:03.179Z,95.10
2023-01-01T02:53:41.064Z,95.00
2023-01-01T02:54:29.661Z,94.90
2023-01-01T02:55:08.278Z,94.90
2023-01-01T02:55:54.643Z,94.90
2023-01-01T02:56:37.460Z,94.90
2023-01-01T02:57:21.986Z,94.90
2023-01-01T02:58:23.273Z,95.00
2023-01-01T02:59:28.259Z,95.00
2023-01-01T03:00:22.356Z,95.00
2023-01-01T03:01:02.792Z,95.00
2023-01-01T03:01:42.831Z,95.00
2023-01-01T03:02:26.088Z,95.00
2023-01-01T03:03:16.804Z,95.00
2023-01-01T03:03:59.041Z,95.00
2023-01-01T03:04:39.856Z,94.90
2023-01-01T03:05:21.559Z,94.90
2023-01-01T03:06:19.510Z,94.90
2023-01-01T03:07:08.379Z,94.90
2023-01-01T03:07:55.551Z,94.90
2023-01-01T03:08:39.653Z,94.90
2023-01-01T03:09:20.565Z,94.90
2023-01-01T03:10:00.547Z,94.90
2023-01-01T03:10:44.844Z,95.00
2023-01-01T03:11:21.242Z,95.10
2023-01-01T03:12:02.696Z,95.10
2023-01-01T03:12:46.481Z,95.10
2023-01-01T03:13:27.903Z,95.00
2023-01-01T03:14:09.047Z,95.00
2023-01-01T03:14:48.783Z,94.90
2023-01-01T03:15:27.554Z,95.00
2023-01-01T03:16:06.892Z,94.90
2023-01-01T03:16:46.512Z,94.90
2023-01-01T03:17:23.436Z,95.00
2023-01-01T03:18:04.133Z,95.00
2023-01-01T03:18:48.172Z,95.00
2023-01-01T03:19:26.068Z,94.90
2023-01-01T03:20:03.232Z,94.90
2023-01-01T03:20:43.104Z,94.90
2023-01-01T03:21:22.920Z,94.90
2023-01-01T03:22:03.249Z,95.00
2023-01-01T03:23:19.176Z,95.00
2023-01-01T03:23:55.418Z,95.10
2023-01-01T03:24:35.825Z,95.10
2023-01-01T03:25:13.037Z,95.10
2023-01-01T03:25:51.918Z,95.10
2023-01-01T03:26:28.336Z,95.10
2023-01-01T03:27:05.419Z,95.20
2023-01-01T03:27:45.400Z,95.20
2023-01-01T03:28:22.217Z,95.10
2023-01-01T03:28:59.137Z,95.20
2023-01-01T03:29:39.995Z,95.30
2023-01-01T03:30:16.524Z,95.20
2023-01-01T03:30:55.713Z,95.20
2023-01-01T03:31:30.162Z,95.20
2023-01-01T03:32:07.931Z,95.20
2023-01-01T03:33:04.771Z,95.20
2023-01-01T03:33:42.581Z,95.20
2023-01-01T03:34:19.968Z,95.20
2023-01-01T03:34:56.633Z,95.20
2023-01-01T03:35:37.558Z,95.10
2023-01-01T03:36:15.611Z,95.10
2023-01-01T03:36:54.235Z,95.10
2023-01-01T03:37:29.459Z,95.00
2023-01-01T03:38:06.923Z,95.10
2023-01-01T03:38:44.814Z,95.10
2023-01-01T03:39:21.934Z,95.10
2023-01-01T03:40:00.667Z,95.10
2023-01-01T03:40:38.610Z,95.00
2023-01-01T03:41:15.720Z,95.00
2023-01-01T03:41:55.697Z,95.00
2023-01-01T03:42:36.893Z,95.10
2023-01-01T03:43:15.691Z,95.20
2023-01-01T03:43:55.080Z,95.20
2023-01-01T03:44:33.089Z,95.20
2023-01-01T03:45:13.919Z,95.20
2023-01-01T03:45:51.683Z,95.20
2023-01-01T03:46:30.545Z,95.20
2023-01-01T03:47:07.596Z,95.20
2023-01-01T03:47:42.128Z,95.20
2023-01-01T03:48:15.626Z,95.20
2023-01-01T03:49:03.816Z,95.20
2023-01-01T03:49:38.565Z,95.20
2023-01-01T03:50:13.509Z,95.20
2023-01-01T03:50:59.724Z,95.10
2023-01-01T03:52:17.241Z,95.10
2023-01-01T03:52:59.276Z,95.20
2023-01-01T03:53:39.769Z,95.10
2023-01-01T03:54:28.161Z,95.00
2023-01-01T03:55:10.422Z,94.90
2023-01-01T03:55:50.175Z,94.90
2023-01-01T03:56:36.775Z,95.00
2023-01-01T03:57:18.537Z,94.90
2023-01-01T03:57:59.161Z,94.90
2023-01-01T03:58:40.601Z,94.90
2023-01-01T03:59:21.237Z,94.90
2023-01-01T04:00:00.043Z,94.90
2023-01-01T04:00:38.899Z,94.90
2023-01-01T04:01:18.295Z,94.90
2023-01-01T04:01:53.928Z,94.90
2023-01-01T04:02:32.183Z,94.90
2023-01-01T04:03:12.959Z,95.00
2023-01-01T04:03:48.281Z,95.00
2023-01-01T04:04:23.024Z,95.10
2023-01-01T04:04:58.485Z,95.10
2023-01-01T04:05:32.821Z,95.10
2023-01-01T04:06:09.508Z,95.10
2023-01-01T04:06:43.831Z,95.10
2023-01-01T04:07:19.119Z,95.10
2023-01-01T04:07:54.593Z,95.10
2023-01-01T04:08:29.671Z,95.00
2023-01-01T04:09:05.796Z,95.00
2023-01-01T04:09:43.979Z,95.00
2023-01-01T04:10:19.988Z,95.00
2023-01-01T04:10:58.647Z,95.00
2023-01-01T04:11:58.133Z,95.00
2023-01-01T04:12:33.650Z,94.90
2023-01-01T04:13:08.327Z,94.90
2023-01-01T04:13:49.389Z,94.90
2023-01-01T04:14:30.050Z,95.00
2023-01-01T04:15:07.109Z,95.00
2023-01-01T04:15:42.676Z,95.00
2023-01-01T04:16:17.691Z,95.00
2023-01-01T04:16:51.229Z,95.00
2023-01-01T04:17:25.193Z,95.00
2023-01-01T04:17:59.984Z,95.10
2023-01-01T04:18:32.843Z,95.10
2023-01-01T04:19:08.458Z,95.10
2023-01-01T04:19:42.415Z,95.10
2023-01-01T04:20:15.603Z,95.10
2023-01-01T04:20:50.175Z,95.00
2023-01-01T04:21:24.619Z,95.00
2023-01-01T04:21:59.011Z,95.00
2023-01-01T04:22:32.276Z,95.00
2023-01-01T04:23:06.392Z,95.00
2023-01-01T04:23:40.830Z,95.00
2023-01-01T04:24:14.997Z,94.90
2023-01-01T04:24:49.552Z,94.90
2023-01-01T04:25:23.405Z,95.00
2023-01-01T04:25:57.342Z,95.00
2023-01-01T04:26:31.958Z,94.90
2023-01-01T04:27:05.112Z,94.90
2023-01-01T04:27:41.020Z,95.20
2023-01-01T04:28:14.725Z,95.00
2023-01-01T04:28:48.062Z,95.00
2023-01-01T04:29:22.528Z,95.00
2023-01-01T04:29:56.463Z,95.00
2023-01-01T04:30:30.064Z,95.00
2023-01-01T04:31:05.703Z,95.00
2023-01-01T04:31:40.685Z,95.00
2023-01-01T04:32:13.778Z,94.90
2023-01-01T04:32:47.998Z,95.00
2023-01-01T04:33:22.875Z,94.90
2023-01-01T04:33:56.373Z,94.90
2023-01-01T04:34:31.951Z,94.90
2023-01-01T04:35:07.964Z,94.90
2023-01-01T04:35:42.563Z,95.00
2023-01-01T04:36:16.715Z,95.00
2023-01-01T04:36:50.563Z,95.00
2023-01-01T04:37:26.159Z,95.00
2023-01-01T04:38:00.765Z,95.10
2023-01-01T04:38:35.185Z,95.20
2023-01-01T04:39:11.005Z,95.20
2023-01-01T04:39:44.909Z,95.20
2023-01-01T04:40:20.421Z,95.30
2023-01-01T04:40:59.413Z,95.30
2023-01-01T04:41:33.403Z,95.40
2023-01-01T04:42:08.209Z,95.40
2023-01-01T04:42:41.031Z,95.40
2023-01-01T04:43:15.017Z,95.30
2023-01-01T04:43:50.855Z,95.30
2023-01-01T04:44:24.347Z,95.30
2023-01-01T04:44:59.848Z,95.30
2023-01-01T04:45:34.236Z,95.30
2023-01-01T04:46:10.065Z,95.30
2023-01-01T04:46:45.493Z,95.40
2023-01-01T04:47:19.537Z,95.40
2023-01-01T04:47:54.800Z,95.40
2023-01-01T04:48:29.692Z,95.40
2023-01-01T04:49:04.105Z,95.40
2023-01-01T04:49:38.393Z,95.40
2023-01-01T04:50:11.793Z,95.30
2023-01-01T04:50:45.577Z,95.40
2023-01-01T04:51:21.617Z,95.40
2023-01-01T04:51:55.981Z,95.40
2023-01-01T04:52:30.510Z,95.40
2023-01-01T04:53:05.781Z,95.40
2023-01-01T04:53:40.713Z,95.40
2023-01-01T04:54:14.681Z,95.40
2023-01-01T04:54:48.630Z,95.50
2023-01-01T04:55:22.010Z,95.60
2023-01-01T04:55:55.812Z,95.60
2023-01-01T04:56:30.794Z,95.60
2023-01-01T04:57:05.442Z,95.60
2023-01-01T04:57:39.101Z,95.60
2023-01-01T04:58:14.515Z,95.60
2023-01-01T04:58:49.053Z,95.50
2023-01-01T04:59:24.573Z,95.50
2023-01-01T04:59:58.423Z,95.50
2023-01-01T05:00:33.582Z,95.50
2023-01-01T05:01:16.974Z,95.50
2023-01-01T05:01:52.782Z,95.50
2023-01-01T05:02:26.791Z,95.60
2023-01-01T05:03:02.473Z,95.60
2023-01-01T05:03:37.859Z,95.60
2023-01-01T05:04:14.584Z,95.70
2023-01-01T05:04:47.957Z,95.70
2023-01-01T05:05:22.426Z,95.70
2023-01-01T05:06:10.300Z,95.70
2023-01-01T05:06:43.868Z,95.60
2023-01-01T05:07:16.699Z,95.70
2023-01-01T05:07:51.789Z,95.50
2023-01-01T05:08:26.092Z,95.50
2023-01-01T05:09:01.933Z,95.50
2023-01-01T05:09:35.410Z,95.50
2023-01-01T05:10:09.825Z,95.60
2023-01-01T05:10:44.818Z,95.60
2023-01-01T05:11:20.534Z,95.60
2023-01-01T05:11:56.642Z,95.60
2023-01-01T05:12:32.522Z,95.60
2023-01-01T05:13:09.694Z,95.70
2023-01-01T05:13:45.847Z,95.70
2023-01-01T05:14:21.452Z,95.70
2023-01-01T05:14:56.753Z,95.70
2023-01-01T05:15:31.120Z,95.70
2023-01-01T05:16:07.060Z,95.60
2023-01-01T05:16:42.154Z,95.60
2023-01-01T05:17:15.964Z,95.50
2023-01-01T05:17:50.710Z,95.60
2023-01-01T05:18:25.145Z,95.50
2023-01-01T05:18:59.098Z,95.50
2023-01-01T05:19:33.777Z,95.50
2023-01-01T05:20:09.740Z,95.50
2023-01-01T05:20:43.141Z,95.50
2023-01-01T05:21:19.641Z,95.40
2023-01-01T05:21:54.985Z,95.40
2023-01-01T05:22:29.555Z,95.40
2023-01-01T05:23:05.094Z,95.40
2023-01-01T05:23:39.901Z,95.40
2023-01-01T05:24:15.174Z,95.40
2023-01-01T05:24:49.064Z,95.40
2023-01-01T05:25:22.389Z,95.50
2023-01-01T05:25:56.402Z,95.50
2023-01-01T05:26:32.634Z,95.50
2023-01-01T05:27:08.188Z,95.50
2023-01-01T05:27:42.047Z,95.60
2023-01-01T05:28:15.283Z,95.60
2023-01-01T05:28:50.453Z,95.70
2023-01-01T05:29:24.434Z,95.70
2023-01-01T05:29:58.910Z,95.70
2023-01-01T05:30:33.362Z,95.70
2023-01-01T05:31:09.167Z,95.70
2023-01-01T05:31:45.094Z,95.60
2023-01-01T05:32:19.165Z,95.70
2023-01-01T05:32:54.478Z,95.70
2023-01-01T05:33:29.703Z,95.60
2023-01-01T05:35:11.944Z,95.60
2023-01-01T05:35:45.858Z,95.60
2023-01-01T05:36:22.160Z,95.60
2023-01-01T05:36:56.136Z,95.70
2023-01-01T05:37:31.585Z,95.70
2023-01-01T05:38:06.956Z,95.70
2023-01-01T05:38:40.871Z,95.70
2023-01-01T05:39:17.401Z,95.80
2023-01-01T05:39:52.264Z,95.80
2023-01-01T05:40:26.800Z,95.90
2023-01-01T05:41:01.515Z,95.90
2023-01-01T05:41:37.097Z,95.90
2023-01-01T05:42:11.099Z,96.00
2023-01-01T05:42:49.205Z,96.00
2023-01-01T05:43:23.563Z,96.00
2023-01-01T05:43:59.813Z,96.00
2023-01-01T05:44:35.195Z,96.00
2023-01-01T05:45:13.320Z,96.00
2023-01-01T05:45:48.505Z,96.00
2023-01-01T05:46:24.040Z,95.90
2023-01-01T05:47:00.524Z,96.00
2023-01-01T05:47:33.919Z,96.00
2023-01-01T05:48:08.457Z,96.00
2023-01-01T05:48:42.521Z,96.00
2023-01-01T05:49:16.409Z,96.00
2023-01-01T05:49:50.292Z,96.00
2023-01-01T05:50:25.879Z,96.00
2023-01-01T05:51:04.619Z,96.00
2023-01-01T05:52:12.653Z,96.10
2023-01-01T05:52:48.483Z,96.10
2023-01-01T05:53:21.789Z,96.10
2023-01-01T05:53:56.565Z,96.10
2023-01-01T05:54:31.402Z,96.10
2023-01-01T05:55:06.886Z,96.00
2023-01-01T05:55:41.836Z,96.00
2023-01-01T05:56:18.615Z,96.00
2023-01-01T05:56:52.514Z,96.00
2023-01-01T05:57:28.154Z,96.00
2023-01-01T05:58:02.383Z,96.00
2023-01-01T05:58:36.776Z,96.00
2023-01-01T05:59:12.633Z,96.00
2023-01-01T05:59:46.951Z,96.00
2023-01-01T06:00:21.977Z,96.10
2023-01-01T06:00:56.910Z,96.00
2023-01-01T06:01:32.394Z,95.90
2023-01-01T06:02:08.436Z,95.90
2023-01-01T06:02:44.186Z,95.90
2023-01-01T06:03:17.603Z,95.80
2023-01-01T06:03:52.127Z,95.80
2023-01-01T06:04:27.724Z,95.80
2023-01-01T06:05:01.569Z,95.70
2023-01-01T06:05:36.690Z,95.70
2023-01-01T06:06:12.569Z,95.80
2023-01-01T06:06:47.724Z,95.70
2023-01-01T06:07:23.131Z,95.70
2023-01-01T06:07:57.696Z,95.80
2023-01-01T06:08:32.851Z,95.80
2023-01-01T06:09:08.180Z,95.90
2023-01-01T06:09:41.607Z,95.90
2023-01-01T06:10:15.144Z,95.90
2023-01-01T06:10:50.966Z,95.90
2023-01-01T06:11:24.773Z,95.80
2023-01-01T06:11:58.681Z,95.90
2023-01-01T06:12:33.131Z,96.10
2023-01-01T06:13:12.928Z,95.90
2023-01-01T06:13:48.717Z,95.90
2023-01-01T06:14:22.643Z,95.90
2023-01-01T06:14:57.744Z,95.90
2023-01-01T06:15:32.425Z,95.90
2023-01-01T06:16:08.277Z,95.80
2023-01-01T06:16:43.241Z,95.80
2023-01-01T06:17:19.147Z,95.90
2023-01-01T06:17:51.732Z,95.90
2023-01-01T06:18:27.275Z,96.00
2023-01-01T06:19:02.846Z,96.00
2023-01-01T06:19:39.005Z,95.90
2023-01-01T06:20:13.625Z,95.90
2023-01-01T06:20:47.147Z,95.80
2023-01-01T06:21:23.423Z,95.90
2023-01-01T06:21:56.780Z,95.90
2023-01-01T06:22:30.055Z,95.90
2023-01-01T06:23:04.805Z,95.90
2023-01-01T06:23:41.849Z,95.80
2023-01-01T06:24:17.590Z,95.80
2023-01-01T06:24:52.041Z,95.80
2023-01-01T06:25:25.379Z,95.80
2023-01-01T06:26:05.237Z,95.80
2023-01-01T06:26:39.391Z,95.80
2023-01-01T06:27:14.684Z,95.80
2023-01-01T06:27:48.457Z,95.70
2023-01-01T06:28:22.824Z,95.80
2023-01-01T06:28:57.455Z,95.80
2023-01-01T06:29:31.367Z,95.80
2023-01-01T06:30:07.157Z,95.80
2023-01-01T06:30:41.153Z,95.80
2023-01-01T06:31:16.649Z,95.80
2023-01-01T06:31:51.078Z,95.80
2023-01-01T06:32:26.922Z,95.80
2023-01-01T06:33:00.759Z,95.80
2023-01-01T06:33:35.276Z,95.80
2023-01-01T06:34:09.809Z,95.80
2023-01-01T06:34:43.432Z,95.80
2023-01-01T06:35:18.603Z,95.80
2023-01-01T06:35:53.684Z,95.90
2023-01-01T06:36:28.287Z,95.90
2023-01-01T06:37:06.982Z,95.90
2023-01-01T06:37:42.602Z,95.80
2023-01-01T06:38:15.747Z,95.70
2023-01-01T06:38:52.679Z,95.70
2023-01-01T06:39:26.440Z,95.70
2023-01-01T06:40:01.049Z,95.70
2023-01-01T06:40:35.630Z,95.70
2023-01-01T06:41:12.425Z,95.70
2023-01-01T06:41:45.549Z,95.70
2023-01-01T06:42:19.022Z,95.70
2023-01-01T06:42:54.181Z,95.70
2023-01-01T06:43:27.591Z,95.70
2023-01-01T06:44:02.694Z,95.70
2023-01-01T06:44:37.343Z,95.70
2023-01-01T06:45:13.403Z,95.70
2023-01-01T06:45:47.359Z,95.70
2023-01-01T06:46:23.637Z,95.70
2023-01-01T06:46:57.631Z,95.60
2023-01-01T06:47:34.763Z,95.70
2023-01-01T06:48:09.235Z,95.70
2023-01-01T06:48:43.217Z,95.70
2023-01-01T06:49:18.250Z,95.70
2023-01-01T06:49:52.922Z,95.70
2023-01-01T06:50:26.308Z,95.70
2023-01-01T06:51:06.523Z,95.80
2023-01-01T06:51:41.753Z,95.70
2023-01-01T06:52:17.981Z,95.70
2023-01-01T06:52:52.659Z,95.70
2023-01-01T06:53:26.800Z,95.70
2023-01-01T06:54:03.316Z,95.70
2023-01-01T06:54:38.340Z,95.70
2023-01-01T06:55:12.969Z,95.70
2023-01-01T06:55:55.011Z,95.80
2023-01-01T06:56:32.404Z,95.80
2023-01-01T06:57:06.854Z,95.70
2023-01-01T06:57:41.301Z,95.70
2023-01-01T06:58:15.601Z,95.70
2023-01-01T06:58:50.594Z,95.70
2023-01-01T06:59:24.507Z,95.80
2023-01-01T06:59:58.454Z,95.80
2023-01-01T07:00:33.281Z,95.80
2023-01-01T07:01:09.171Z,96.00
2023-01-01T07:01:45.137Z,95.90
2023-01-01T07:02:20.192Z,95.90
2023-01-01T07:02:55.754Z,95.90
2023-01-01T07:03:31.101Z,95.90
2023-01-01T07:04:06.464Z,95.80
2023-01-01T07:04:41.074Z,95.90
2023-01-01T07:05:16.859Z,95.80
2023-01-01T07:05:50.482Z,95.80
2023-01-01T07:06:27.446Z,95.80
2023-01-01T07:07:02.044Z,95.70
2023-01-01T07:07:36.454Z,95.70
2023-01-01T07:08:12.094Z,95.70
2023-01-01T07:08:45.889Z,95.70
2023-01-01T07:09:21.256Z,95.70
2023-01-01T07:09:55.710Z,95.70
2023-01-01T07:10:29.950Z,95.90
2023-01-01T07:11:06.274Z,95.60
2023-01-01T07:11:41.184Z,95.60
2023-01-01T07:12:16.191Z,95.60
2023-01-01T07:12:49.537Z,95.70
2023-01-01T07:13:23.939Z,95.70
2023-01-01T07:13:59.643Z,95.70
2023-01-01T07:14:34.663Z,95.60
2023-01-01T07:15:11.198Z,95.60
2023-01-01T07:15:46.317Z,95.60
2023-01-01T07:16:19.951Z,95.70
2023-01-01T07:16:56.036Z,95.70
2023-01-01T07:17:32.469Z,95.70
2023-01-01T07:18:08.384Z,95.70
2023-01-01T07:18:41.955Z,95.80
2023-01-01T07:19:17.184Z,95.80
2023-01-01T07:19:51.694Z,95.80
2023-01-01T07:20:26.489Z,95.90
2023-01-01T07:21:01.512Z,95.90
2023-01-01T07:21:39.667Z,96.00
2023-01-01T07:22:14.179Z,96.00
2023-01-01T07:22:48.176Z,96.00
2023-01-01T07:23:23.180Z,96.10
2023-01-01T07:23:57.949Z,96.10
2023-01-01T07:24:31.314Z,96.10
2023-01-01T07:25:05.954Z,96.10
2023-01-01T07:25:42.958Z,96.10
2023-01-01T07:26:18.015Z,96.20
2023-01-01T07:26:54.089Z,96.10
2023-01-01T07:27:27.274Z,96.10
2023-01-01T07:28:01.109Z,96.10
2023-01-01T07:28:36.695Z,96.10
2023-01-01T07:29:10.528Z,96.10
2023-01-01T07:29:45.586Z,96.10
2023-01-01T07:30:19.724Z,96.10
2023-01-01T07:30:53.914Z,96.20
2023-01-01T07:31:28.707Z,96.20
2023-01-01T07:32:02.863Z,96.20
2023-01-01T07:32:37.589Z,96.20
2023-01-01T07:33:15.778Z,96.30
2023-01-01T07:33:49.643Z,96.40
2023-01-01T07:34:25.202Z,96.40
2023-01-01T07:35:00.178Z,96.40
2023-01-01T07:35:34.116Z,96.40
2023-01-01T07:36:09.810Z,96.30
2023-01-01T07:36:43.641Z,96.30
2023-01-01T07:37:21.154Z,96.30
2023-01-01T07:37:55.613Z,96.30
2023-01-01T07:38:29.298Z,96.20
2023-01-01T07:39:03.754Z,96.20
2023-01-01T07:39:38.678Z,96.20
2023-01-01T07:40:14.385Z,96.20
2023-01-01T07:40:50.156Z,96.10
2023-01-01T07:41:24.640Z,96.20
2023-01-01T07:42:02.823Z,96.20
2023-01-01T07:42:40.444Z,96.20
2023-01-01T07:43:17.350Z,96.20
2023-01-01T07:43:51.818Z,96.10
2023-01-01T07:44:27.356Z,96.10
2023-01-01T07:45:02.237Z,96.10
2023-01-01T07:45:36.145Z,96.10
2023-01-01T07:46:13.452Z,96.10
2023-01-01T07:46:47.606Z,96.10
2023-01-01T07:47:24.660Z,96.10
2023-01-01T07:47:59.453Z,96.10
2023-01-01T07:48:39.826Z,96.10
2023-01-01T07:49:15.468Z,96.00
2023-01-01T07:49:49.485Z,96.00
2023-01-01T07:50:24.989Z,96.00
2023-01-01T07:50:59.872Z,96.00
2023-01-01T07:51:34.153Z,96.00
2023-01-01T07:52:07.448Z,96.00
2023-01-01T07:52:41.224Z,96.00
2023-01-01T07:53:16.820Z,96.00
2023-01-01T07:53:51.075Z,96.00
2023-01-01T07:54:25.434Z,96.00
2023-01-01T07:55:01.221Z,96.00